Terminal Aerodrome Forecast
Issued by NWS

Home | Current Version | Previous Version | Text Only | Print | Product List | Glossary On
Versions: 1 2 3 4 5 6 7 8 9 10 11 12 13 14 15 16 17 18 19 20 21 22 23 24 25 26 27 28 29 30 31 32
000
FTUS45 KBYZ 301137
TAFLVM
TAF
KLVM 301137Z 3012/3112 21026G35KT P6SM VCTS BKN080CB
     FM301400 26018G28KT P6SM VCSH BKN080
     FM302100 25027G37KT P6SM VCTS BKN070CB
     FM310100 25030G40KT P6SM VCSH BKN070
     FM310600 27020G30KT P6SM BKN080=

USA.gov is the U.S. government's official web portal to all federal, state and local government web resources and services.